sensor_id;sensor_type;location;lat;lon;timestamp;P1;durP1;ratioP1;P2;durP2;ratioP2
19664;SDS011;9980;51.020;7.772;2023-05-20T00:00:57;2.83;;;2.63;;
19664;SDS011;9980;51.020;7.772;2023-05-20T00:03:23;4.23;;;2.60;;
19664;SDS011;9980;51.020;7.772;2023-05-20T00:05:50;3.20;;;2.90;;
19664;SDS011;9980;51.020;7.772;2023-05-20T00:08:17;6.63;;;2.53;;
19664;SDS011;9980;51.020;7.772;2023-05-20T00:10:43;6.90;;;3.17;;
19664;SDS011;9980;51.020;7.772;2023-05-20T00:13:10;3.30;;;2.20;;
19664;SDS011;9980;51.020;7.772;2023-05-20T00:15:36;3.63;;;2.43;;
19664;SDS011;9980;51.020;7.772;2023-05-20T00:18:03;5.53;;;2.90;;
19664;SDS011;9980;51.020;7.772;2023-05-20T00:20:29;2.60;;;2.40;;
19664;SDS011;9980;51.020;7.772;2023-05-20T00:22:56;2.60;;;2.40;;
19664;SDS011;9980;51.020;7.772;2023-05-20T00:25:22;2.77;;;2.50;;
19664;SDS011;9980;51.020;7.772;2023-05-20T00:27:49;2.93;;;2.73;;
19664;SDS011;9980;51.020;7.772;2023-05-20T00:30:15;3.33;;;2.97;;
19664;SDS011;9980;51.020;7.772;2023-05-20T00:32:41;2.60;;;2.40;;
19664;SDS011;9980;51.020;7.772;2023-05-20T00:35:08;2.73;;;2.33;;
19664;SDS011;9980;51.020;7.772;2023-05-20T00:37:35;2.40;;;2.20;;
19664;SDS011;9980;51.020;7.772;2023-05-20T00:40:02;4.60;;;2.80;;
19664;SDS011;9980;51.020;7.772;2023-05-20T00:42:29;3.67;;;2.20;;
19664;SDS011;9980;51.020;7.772;2023-05-20T00:44:55;2.67;;;2.47;;
19664;SDS011;9980;51.020;7.772;2023-05-20T00:47:26;2.30;;;2.20;;
19664;SDS011;9980;51.020;7.772;2023-05-20T00:49:55;2.93;;;2.37;;
19664;SDS011;9980;51.020;7.772;2023-05-20T00:52:23;2.57;;;2.30;;
19664;SDS011;9980;51.020;7.772;2023-05-20T00:54:50;2.73;;;2.40;;
19664;SDS011;9980;51.020;7.772;2023-05-20T00:57:18;2.40;;;2.20;;
19664;SDS011;9980;51.020;7.772;2023-05-20T00:59:44;2.40;;;2.23;;
19664;SDS011;9980;51.020;7.772;2023-05-20T01:02:11;2.67;;;2.47;;
19664;SDS011;9980;51.020;7.772;2023-05-20T01:04:37;2.67;;;2.47;;
19664;SDS011;9980;51.020;7.772;2023-05-20T01:07:04;2.50;;;2.40;;
19664;SDS011;9980;51.020;7.772;2023-05-20T01:09:32;2.70;;;2.50;;
19664;SDS011;9980;51.020;7.772;2023-05-20T01:12:10;2.77;;;2.57;;
19664;SDS011;9980;51.020;7.772;2023-05-20T01:15:13;3.23;;;2.87;;
19664;SDS011;9980;51.020;7.772;2023-05-20T01:17:45;4.43;;;2.70;;
19664;SDS011;9980;51.020;7.772;2023-05-20T01:20:15;3.23;;;2.93;;
19664;SDS011;9980;51.020;7.772;2023-05-20T01:22:54;3.10;;;2.40;;
19664;SDS011;9980;51.020;7.772;2023-05-20T01:25:22;2.53;;;2.33;;
19664;SDS011;9980;51.020;7.772;2023-05-20T01:27:49;2.80;;;2.40;;
19664;SDS011;9980;51.020;7.772;2023-05-20T01:30:18;3.23;;;2.40;;
19664;SDS011;9980;51.020;7.772;2023-05-20T01:32:51;2.57;;;2.37;;
19664;SDS011;9980;51.020;7.772;2023-05-20T01:35:24;3.03;;;2.77;;
19664;SDS011;9980;51.020;7.772;2023-05-20T01:37:51;3.83;;;2.53;;
19664;SDS011;9980;51.020;7.772;2023-05-20T01:40:18;2.80;;;2.53;;
19664;SDS011;9980;51.020;7.772;2023-05-20T01:42:45;2.73;;;2.53;;
19664;SDS011;9980;51.020;7.772;2023-05-20T01:45:18;2.93;;;2.63;;
19664;SDS011;9980;51.020;7.772;2023-05-20T01:47:44;3.10;;;2.80;;
19664;SDS011;9980;51.020;7.772;2023-05-20T01:50:11;2.80;;;2.57;;
19664;SDS011;9980;51.020;7.772;2023-05-20T01:52:37;3.10;;;2.90;;
19664;SDS011;9980;51.020;7.772;2023-05-20T01:55:03;2.87;;;2.57;;
19664;SDS011;9980;51.020;7.772;2023-05-20T01:57:30;2.63;;;2.43;;
19664;SDS011;9980;51.020;7.772;2023-05-20T01:59:57;3.00;;;2.60;;
19664;SDS011;9980;51.020;7.772;2023-05-20T02:02:23;3.23;;;2.93;;
19664;SDS011;9980;51.020;7.772;2023-05-20T02:04:50;4.37;;;2.73;;
19664;SDS011;9980;51.020;7.772;2023-05-20T02:07:18;3.60;;;3.30;;
19664;SDS011;9980;51.020;7.772;2023-05-20T02:09:45;3.20;;;2.97;;
19664;SDS011;9980;51.020;7.772;2023-05-20T02:12:12;3.67;;;3.23;;
19664;SDS011;9980;51.020;7.772;2023-05-20T02:14:45;3.37;;;3.07;;
19664;SDS011;9980;51.020;7.772;2023-05-20T02:17:13;3.00;;;2.80;;
19664;SDS011;9980;51.020;7.772;2023-05-20T02:19:42;3.20;;;2.90;;
19664;SDS011;9980;51.020;7.772;2023-05-20T02:22:10;3.07;;;2.87;;
19664;SDS011;9980;51.020;7.772;2023-05-20T02:24:36;3.27;;;3.07;;
19664;SDS011;9980;51.020;7.772;2023-05-20T02:27:03;3.50;;;3.20;;
19664;SDS011;9980;51.020;7.772;2023-05-20T02:29:32;3.13;;;2.83;;
19664;SDS011;9980;51.020;7.772;2023-05-20T02:31:58;4.07;;;2.40;;
19664;SDS011;9980;51.020;7.772;2023-05-20T02:34:26;4.60;;;3.33;;
19664;SDS011;9980;51.020;7.772;2023-05-20T02:36:55;3.50;;;2.77;;
19664;SDS011;9980;51.020;7.772;2023-05-20T02:39:21;5.20;;;3.10;;
19664;SDS011;9980;51.020;7.772;2023-05-20T02:41:48;3.50;;;3.20;;
19664;SDS011;9980;51.020;7.772;2023-05-20T02:44:15;3.63;;;3.33;;
19664;SDS011;9980;51.020;7.772;2023-05-20T02:46:41;3.70;;;3.40;;
19664;SDS011;9980;51.020;7.772;2023-05-20T02:49:07;3.57;;;3.27;;
19664;SDS011;9980;51.020;7.772;2023-05-20T02:51:34;3.70;;;3.10;;
19664;SDS011;9980;51.020;7.772;2023-05-20T02:54:01;3.43;;;3.13;;
19664;SDS011;9980;51.020;7.772;2023-05-20T02:56:28;4.03;;;3.30;;
19664;SDS011;9980;51.020;7.772;2023-05-20T02:58:54;3.33;;;3.03;;
19664;SDS011;9980;51.020;7.772;2023-05-20T03:01:22;3.47;;;3.17;;
19664;SDS011;9980;51.020;7.772;2023-05-20T03:03:49;3.40;;;3.10;;
19664;SDS011;9980;51.020;7.772;2023-05-20T03:06:15;3.40;;;3.20;;
19664;SDS011;9980;51.020;7.772;2023-05-20T03:08:41;4.00;;;2.60;;
19664;SDS011;9980;51.020;7.772;2023-05-20T03:11:07;3.40;;;3.07;;
19664;SDS011;9980;51.020;7.772;2023-05-20T03:13:33;4.83;;;2.90;;
19664;SDS011;9980;51.020;7.772;2023-05-20T03:16:00;4.47;;;3.20;;
19664;SDS011;9980;51.020;7.772;2023-05-20T03:18:26;3.37;;;2.50;;
19664;SDS011;9980;51.020;7.772;2023-05-20T03:20:53;3.00;;;2.80;;
19664;SDS011;9980;51.020;7.772;2023-05-20T03:23:19;3.13;;;2.93;;
19664;SDS011;9980;51.020;7.772;2023-05-20T03:25:45;4.20;;;3.40;;
19664;SDS011;9980;51.020;7.772;2023-05-20T03:28:12;2.87;;;2.60;;
19664;SDS011;9980;51.020;7.772;2023-05-20T03:30:39;3.37;;;3.10;;
19664;SDS011;9980;51.020;7.772;2023-05-20T03:33:05;3.10;;;2.70;;
19664;SDS011;9980;51.020;7.772;2023-05-20T03:35:32;3.67;;;3.30;;
19664;SDS011;9980;51.020;7.772;2023-05-20T03:37:59;3.70;;;3.40;;
19664;SDS011;9980;51.020;7.772;2023-05-20T03:40:26;3.43;;;2.87;;
19664;SDS011;9980;51.020;7.772;2023-05-20T03:42:53;3.53;;;3.23;;
19664;SDS011;9980;51.020;7.772;2023-05-20T03:45:20;4.40;;;4.07;;
19664;SDS011;9980;51.020;7.772;2023-05-20T03:47:55;3.90;;;3.60;;
19664;SDS011;9980;51.020;7.772;2023-05-20T03:50:22;4.70;;;3.63;;
19664;SDS011;9980;51.020;7.772;2023-05-20T03:52:48;3.63;;;3.43;;
19664;SDS011;9980;51.020;7.772;2023-05-20T03:55:17;5.10;;;3.30;;
19664;SDS011;9980;51.020;7.772;2023-05-20T03:57:45;3.93;;;3.53;;
19664;SDS011;9980;51.020;7.772;2023-05-20T04:00:13;3.90;;;3.60;;
19664;SDS011;9980;51.020;7.772;2023-05-20T04:02:43;4.10;;;3.80;;
19664;SDS011;9980;51.020;7.772;2023-05-20T04:05:14;4.17;;;3.77;;
19664;SDS011;9980;51.020;7.772;2023-05-20T04:07:40;3.97;;;3.47;;
19664;SDS011;9980;51.020;7.772;2023-05-20T04:10:07;4.07;;;3.77;;
19664;SDS011;9980;51.020;7.772;2023-05-20T04:12:34;3.60;;;3.30;;
19664;SDS011;9980;51.020;7.772;2023-05-20T04:15:01;4.87;;;3.93;;
19664;SDS011;9980;51.020;7.772;2023-05-20T04:17:32;4.07;;;3.67;;
19664;SDS011;9980;51.020;7.772;2023-05-20T04:19:58;3.87;;;3.57;;
19664;SDS011;9980;51.020;7.772;2023-05-20T04:22:25;3.43;;;3.13;;
19664;SDS011;9980;51.020;7.772;2023-05-20T04:24:52;4.17;;;3.87;;
19664;SDS011;9980;51.020;7.772;2023-05-20T04:27:18;3.37;;;3.17;;
19664;SDS011;9980;51.020;7.772;2023-05-20T04:29:45;5.13;;;4.20;;
19664;SDS011;9980;51.020;7.772;2023-05-20T04:32:13;4.10;;;3.80;;
19664;SDS011;9980;51.020;7.772;2023-05-20T04:34:46;4.63;;;3.63;;
19664;SDS011;9980;51.020;7.772;2023-05-20T04:37:13;4.33;;;3.97;;
19664;SDS011;9980;51.020;7.772;2023-05-20T04:39:40;4.90;;;4.23;;
19664;SDS011;9980;51.020;7.772;2023-05-20T04:42:12;6.00;;;3.60;;
19664;SDS011;9980;51.020;7.772;2023-05-20T04:44:38;4.63;;;4.23;;
19664;SDS011;9980;51.020;7.772;2023-05-20T04:47:07;4.87;;;4.30;;
19664;SDS011;9980;51.020;7.772;2023-05-20T04:49:35;5.53;;;4.20;;
19664;SDS011;9980;51.020;7.772;2023-05-20T04:52:02;4.60;;;4.20;;
19664;SDS011;9980;51.020;7.772;2023-05-20T04:54:30;4.80;;;4.30;;
19664;SDS011;9980;51.020;7.772;2023-05-20T04:56:57;4.33;;;4.00;;
19664;SDS011;9980;51.020;7.772;2023-05-20T04:59:24;4.60;;;4.13;;
19664;SDS011;9980;51.020;7.772;2023-05-20T05:01:50;4.73;;;4.20;;
19664;SDS011;9980;51.020;7.772;2023-05-20T05:04:17;4.47;;;4.07;;
19664;SDS011;9980;51.020;7.772;2023-05-20T05:06:43;4.60;;;4.20;;
19664;SDS011;9980;51.020;7.772;2023-05-20T05:09:09;3.87;;;3.60;;
19664;SDS011;9980;51.020;7.772;2023-05-20T05:11:39;6.33;;;3.70;;
19664;SDS011;9980;51.020;7.772;2023-05-20T05:14:06;4.40;;;4.10;;
19664;SDS011;9980;51.020;7.772;2023-05-20T05:16:34;4.50;;;4.10;;
19664;SDS011;9980;51.020;7.772;2023-05-20T05:19:00;4.57;;;4.20;;
19664;SDS011;9980;51.020;7.772;2023-05-20T05:21:30;4.83;;;4.40;;
19664;SDS011;9980;51.020;7.772;2023-05-20T05:23:56;8.60;;;4.60;;
19664;SDS011;9980;51.020;7.772;2023-05-20T05:26:23;4.77;;;3.97;;
19664;SDS011;9980;51.020;7.772;2023-05-20T05:28:53;4.23;;;3.93;;
19664;SDS011;9980;51.020;7.772;2023-05-20T05:31:19;4.30;;;3.97;;
19664;SDS011;9980;51.020;7.772;2023-05-20T05:33:46;4.87;;;4.37;;
19664;SDS011;9980;51.020;7.772;2023-05-20T05:36:13;4.67;;;4.10;;
19664;SDS011;9980;51.020;7.772;2023-05-20T05:38:40;4.00;;;3.70;;
19664;SDS011;9980;51.020;7.772;2023-05-20T05:41:07;4.43;;;4.03;;
19664;SDS011;9980;51.020;7.772;2023-05-20T05:43:33;6.23;;;4.03;;
19664;SDS011;9980;51.020;7.772;2023-05-20T05:46:01;4.77;;;3.77;;
19664;SDS011;9980;51.020;7.772;2023-05-20T05:48:27;4.87;;;4.10;;
19664;SDS011;9980;51.020;7.772;2023-05-20T05:50:53;3.80;;;3.50;;
19664;SDS011;9980;51.020;7.772;2023-05-20T05:53:20;6.50;;;3.90;;
19664;SDS011;9980;51.020;7.772;2023-05-20T05:55:47;3.67;;;3.37;;
19664;SDS011;9980;51.020;7.772;2023-05-20T05:58:14;4.83;;;3.53;;
19664;SDS011;9980;51.020;7.772;2023-05-20T06:00:41;6.53;;;3.67;;
19664;SDS011;9980;51.020;7.772;2023-05-20T06:03:08;6.27;;;3.87;;
19664;SDS011;9980;51.020;7.772;2023-05-20T06:05:35;4.10;;;3.70;;
19664;SDS011;9980;51.020;7.772;2023-05-20T06:08:02;4.20;;;3.90;;
19664;SDS011;9980;51.020;7.772;2023-05-20T06:10:31;4.20;;;3.80;;
19664;SDS011;9980;51.020;7.772;2023-05-20T06:12:58;4.97;;;4.57;;
19664;SDS011;9980;51.020;7.772;2023-05-20T06:15:25;8.23;;;5.27;;
19664;SDS011;9980;51.020;7.772;2023-05-20T06:17:52;4.30;;;3.90;;
19664;SDS011;9980;51.020;7.772;2023-05-20T06:20:19;5.50;;;4.07;;
19664;SDS011;9980;51.020;7.772;2023-05-20T06:22:45;5.10;;;4.70;;
19664;SDS011;9980;51.020;7.772;2023-05-20T06:25:11;4.30;;;3.90;;
19664;SDS011;9980;51.020;7.772;2023-05-20T06:27:41;7.33;;;6.63;;
19664;SDS011;9980;51.020;7.772;2023-05-20T06:30:10;5.43;;;4.93;;
19664;SDS011;9980;51.020;7.772;2023-05-20T06:32:37;9.27;;;8.40;;
19664;SDS011;9980;51.020;7.772;2023-05-20T06:35:04;10.20;;;9.10;;
19664;SDS011;9980;51.020;7.772;2023-05-20T06:37:32;6.47;;;5.87;;
19664;SDS011;9980;51.020;7.772;2023-05-20T06:39:59;6.20;;;5.60;;
19664;SDS011;9980;51.020;7.772;2023-05-20T06:42:25;5.20;;;4.60;;
19664;SDS011;9980;51.020;7.772;2023-05-20T06:45:01;4.80;;;4.37;;
19664;SDS011;9980;51.020;7.772;2023-05-20T06:47:46;8.93;;;6.03;;
19664;SDS011;9980;51.020;7.772;2023-05-20T06:50:14;8.97;;;7.50;;
19664;SDS011;9980;51.020;7.772;2023-05-20T06:52:40;7.30;;;6.70;;
19664;SDS011;9980;51.020;7.772;2023-05-20T06:55:07;4.90;;;4.50;;
19664;SDS011;9980;51.020;7.772;2023-05-20T06:57:35;6.13;;;5.53;;
19664;SDS011;9980;51.020;7.772;2023-05-20T07:00:02;6.23;;;5.63;;
19664;SDS011;9980;51.020;7.772;2023-05-20T07:02:33;4.47;;;4.07;;
19664;SDS011;9980;51.020;7.772;2023-05-20T07:04:59;4.57;;;4.20;;
19664;SDS011;9980;51.020;7.772;2023-05-20T07:07:25;4.90;;;3.93;;
19664;SDS011;9980;51.020;7.772;2023-05-20T07:09:53;6.27;;;4.23;;
19664;SDS011;9980;51.020;7.772;2023-05-20T07:12:19;4.53;;;4.13;;
19664;SDS011;9980;51.020;7.772;2023-05-20T07:14:45;5.80;;;5.27;;
19664;SDS011;9980;51.020;7.772;2023-05-20T07:17:12;5.57;;;4.73;;
19664;SDS011;9980;51.020;7.772;2023-05-20T07:19:38;5.23;;;4.50;;
19664;SDS011;9980;51.020;7.772;2023-05-20T07:22:05;4.40;;;4.00;;
19664;SDS011;9980;51.020;7.772;2023-05-20T07:24:45;6.03;;;4.47;;
19664;SDS011;9980;51.020;7.772;2023-05-20T07:27:11;4.70;;;3.90;;
19664;SDS011;9980;51.020;7.772;2023-05-20T07:29:37;4.60;;;4.20;;
19664;SDS011;9980;51.020;7.772;2023-05-20T07:32:03;6.43;;;4.57;;
19664;SDS011;9980;51.020;7.772;2023-05-20T07:34:31;5.03;;;4.10;;
19664;SDS011;9980;51.020;7.772;2023-05-20T07:36:58;4.73;;;4.13;;
19664;SDS011;9980;51.020;7.772;2023-05-20T07:39:24;4.30;;;3.90;;
19664;SDS011;9980;51.020;7.772;2023-05-20T07:41:51;4.63;;;4.23;;
19664;SDS011;9980;51.020;7.772;2023-05-20T07:44:17;4.33;;;3.93;;
19664;SDS011;9980;51.020;7.772;2023-05-20T07:46:48;4.03;;;3.63;;
19664;SDS011;9980;51.020;7.772;2023-05-20T07:49:14;5.00;;;4.40;;
19664;SDS011;9980;51.020;7.772;2023-05-20T07:51:41;5.17;;;4.47;;
19664;SDS011;9980;51.020;7.772;2023-05-20T07:54:07;4.27;;;3.90;;
19664;SDS011;9980;51.020;7.772;2023-05-20T07:56:35;5.80;;;3.67;;
19664;SDS011;9980;51.020;7.772;2023-05-20T07:59:01;4.50;;;4.10;;
19664;SDS011;9980;51.020;7.772;2023-05-20T08:01:30;4.80;;;4.33;;
19664;SDS011;9980;51.020;7.772;2023-05-20T08:04:01;4.50;;;3.80;;
19664;SDS011;9980;51.020;7.772;2023-05-20T08:06:29;4.50;;;4.10;;
19664;SDS011;9980;51.020;7.772;2023-05-20T08:08:57;4.20;;;3.87;;
19664;SDS011;9980;51.020;7.772;2023-05-20T08:11:29;4.13;;;3.83;;
19664;SDS011;9980;51.020;7.772;2023-05-20T08:13:57;4.27;;;3.87;;
19664;SDS011;9980;51.020;7.772;2023-05-20T08:16:26;4.20;;;3.90;;
19664;SDS011;9980;51.020;7.772;2023-05-20T08:18:54;4.70;;;3.87;;
19664;SDS011;9980;51.020;7.772;2023-05-20T08:21:21;5.03;;;3.80;;
19664;SDS011;9980;51.020;7.772;2023-05-20T08:23:49;4.43;;;4.03;;
19664;SDS011;9980;51.020;7.772;2023-05-20T08:26:16;4.60;;;4.20;;
19664;SDS011;9980;51.020;7.772;2023-05-20T08:28:43;8.93;;;4.27;;
19664;SDS011;9980;51.020;7.772;2023-05-20T08:31:10;4.40;;;4.00;;
19664;SDS011;9980;51.020;7.772;2023-05-20T08:33:37;4.70;;;4.20;;
19664;SDS011;9980;51.020;7.772;2023-05-20T08:36:05;4.83;;;4.00;;
19664;SDS011;9980;51.020;7.772;2023-05-20T08:38:33;4.37;;;3.93;;
19664;SDS011;9980;51.020;7.772;2023-05-20T08:41:01;7.37;;;4.27;;
19664;SDS011;9980;51.020;7.772;2023-05-20T08:43:29;11.43;;;4.07;;
19664;SDS011;9980;51.020;7.772;2023-05-20T08:45:58;5.30;;;4.20;;
19664;SDS011;9980;51.020;7.772;2023-05-20T08:48:28;4.73;;;4.00;;
19664;SDS011;9980;51.020;7.772;2023-05-20T08:50:57;4.60;;;4.03;;
19664;SDS011;9980;51.020;7.772;2023-05-20T08:53:24;4.70;;;4.17;;
19664;SDS011;9980;51.020;7.772;2023-05-20T08:55:55;5.33;;;3.80;;
19664;SDS011;9980;51.020;7.772;2023-05-20T08:58:28;4.67;;;4.27;;
19664;SDS011;9980;51.020;7.772;2023-05-20T09:00:57;4.77;;;4.37;;
19664;SDS011;9980;51.020;7.772;2023-05-20T09:03:24;4.33;;;3.93;;
19664;SDS011;9980;51.020;7.772;2023-05-20T09:05:51;4.80;;;4.30;;
19664;SDS011;9980;51.020;7.772;2023-05-20T09:08:22;4.60;;;4.20;;
19664;SDS011;9980;51.020;7.772;2023-05-20T09:10:52;4.60;;;4.20;;
19664;SDS011;9980;51.020;7.772;2023-05-20T09:13:19;4.40;;;4.00;;
19664;SDS011;9980;51.020;7.772;2023-05-20T09:15:49;4.27;;;3.87;;
19664;SDS011;9980;51.020;7.772;2023-05-20T09:18:16;6.20;;;4.20;;
19664;SDS011;9980;51.020;7.772;2023-05-20T09:20:45;6.63;;;4.60;;
19664;SDS011;9980;51.020;7.772;2023-05-20T09:23:17;4.70;;;3.63;;
19664;SDS011;9980;51.020;7.772;2023-05-20T09:25:50;4.43;;;3.80;;
19664;SDS011;9980;51.020;7.772;2023-05-20T09:28:18;4.37;;;3.73;;
19664;SDS011;9980;51.020;7.772;2023-05-20T09:30:50;4.30;;;3.90;;
19664;SDS011;9980;51.020;7.772;2023-05-20T09:33:25;4.97;;;4.03;;
19664;SDS011;9980;51.020;7.772;2023-05-20T09:36:08;4.53;;;4.13;;
19664;SDS011;9980;51.020;7.772;2023-05-20T09:38:37;6.47;;;3.90;;
19664;SDS011;9980;51.020;7.772;2023-05-20T09:41:07;3.90;;;3.60;;
19664;SDS011;9980;51.020;7.772;2023-05-20T09:43:40;5.33;;;4.03;;
19664;SDS011;9980;51.020;7.772;2023-05-20T09:46:07;4.13;;;3.83;;
19664;SDS011;9980;51.020;7.772;2023-05-20T09:48:36;4.17;;;3.87;;
19664;SDS011;9980;51.020;7.772;2023-05-20T09:51:04;4.33;;;3.90;;
19664;SDS011;9980;51.020;7.772;2023-05-20T09:53:33;5.37;;;4.23;;
19664;SDS011;9980;51.020;7.772;2023-05-20T09:56:00;5.03;;;3.80;;
19664;SDS011;9980;51.020;7.772;2023-05-20T09:58:27;4.23;;;3.83;;
19664;SDS011;9980;51.020;7.772;2023-05-20T10:00:55;3.80;;;3.50;;
19664;SDS011;9980;51.020;7.772;2023-05-20T10:03:22;5.27;;;3.87;;
19664;SDS011;9980;51.020;7.772;2023-05-20T10:20:49;4.07;;;3.67;;
19664;SDS011;9980;51.020;7.772;2023-05-20T10:23:23;5.77;;;4.20;;
19664;SDS011;9980;51.020;7.772;2023-05-20T10:25:57;3.90;;;3.60;;
19664;SDS011;9980;51.020;7.772;2023-05-20T10:28:30;4.20;;;3.90;;
19664;SDS011;9980;51.020;7.772;2023-05-20T10:31:16;4.30;;;3.87;;
19664;SDS011;9980;51.020;7.772;2023-05-20T10:33:47;5.03;;;4.10;;
19664;SDS011;9980;51.020;7.772;2023-05-20T10:36:28;4.93;;;4.00;;
19664;SDS011;9980;51.020;7.772;2023-05-20T10:38:57;4.40;;;4.00;;
19664;SDS011;9980;51.020;7.772;2023-05-20T10:41:26;4.90;;;4.30;;
19664;SDS011;9980;51.020;7.772;2023-05-20T10:44:01;4.10;;;3.80;;
19664;SDS011;9980;51.020;7.772;2023-05-20T10:46:32;4.60;;;4.17;;
19664;SDS011;9980;51.020;7.772;2023-05-20T10:49:20;4.20;;;3.83;;
19664;SDS011;9980;51.020;7.772;2023-05-20T10:51:52;4.40;;;4.00;;
19664;SDS011;9980;51.020;7.772;2023-05-20T10:54:20;4.23;;;3.83;;
19664;SDS011;9980;51.020;7.772;2023-05-20T10:56:51;4.40;;;4.00;;
19664;SDS011;9980;51.020;7.772;2023-05-20T10:59:19;6.13;;;4.10;;
19664;SDS011;9980;51.020;7.772;2023-05-20T11:01:47;5.73;;;4.07;;
19664;SDS011;9980;51.020;7.772;2023-05-20T11:04:15;6.87;;;4.33;;
19664;SDS011;9980;51.020;7.772;2023-05-20T11:06:52;6.00;;;3.93;;
19664;SDS011;9980;51.020;7.772;2023-05-20T11:09:21;3.70;;;3.40;;
19664;SDS011;9980;51.020;7.772;2023-05-20T11:11:48;5.07;;;3.77;;
19664;SDS011;9980;51.020;7.772;2023-05-20T11:14:17;5.47;;;3.47;;
19664;SDS011;9980;51.020;7.772;2023-05-20T11:16:45;4.23;;;3.70;;
19664;SDS011;9980;51.020;7.772;2023-05-20T11:19:17;3.93;;;3.63;;
19664;SDS011;9980;51.020;7.772;2023-05-20T11:21:44;3.93;;;3.63;;
19664;SDS011;9980;51.020;7.772;2023-05-20T11:24:16;4.53;;;4.13;;
19664;SDS011;9980;51.020;7.772;2023-05-20T11:26:51;4.30;;;3.90;;
19664;SDS011;9980;51.020;7.772;2023-05-20T11:29:20;4.10;;;3.80;;
19664;SDS011;9980;51.020;7.772;2023-05-20T11:31:50;4.53;;;4.13;;
19664;SDS011;9980;51.020;7.772;2023-05-20T11:34:21;7.43;;;4.00;;
19664;SDS011;9980;51.020;7.772;2023-05-20T11:36:55;4.17;;;3.73;;
19664;SDS011;9980;51.020;7.772;2023-05-20T11:39:24;9.47;;;3.90;;
19664;SDS011;9980;51.020;7.772;2023-05-20T11:41:52;4.43;;;4.03;;
19664;SDS011;9980;51.020;7.772;2023-05-20T11:44:19;4.53;;;4.13;;
19664;SDS011;9980;51.020;7.772;2023-05-20T11:46:47;4.77;;;4.37;;
19664;SDS011;9980;51.020;7.772;2023-05-20T11:49:14;4.23;;;3.83;;
19664;SDS011;9980;51.020;7.772;2023-05-20T11:51:42;4.10;;;3.80;;
19664;SDS011;9980;51.020;7.772;2023-05-20T11:54:10;4.27;;;3.97;;
19664;SDS011;9980;51.020;7.772;2023-05-20T11:56:38;6.27;;;4.23;;
19664;SDS011;9980;51.020;7.772;2023-05-20T11:59:08;3.87;;;3.57;;
19664;SDS011;9980;51.020;7.772;2023-05-20T12:01:37;4.10;;;3.70;;
19664;SDS011;9980;51.020;7.772;2023-05-20T12:04:11;6.40;;;4.13;;
19664;SDS011;9980;51.020;7.772;2023-05-20T12:06:40;6.07;;;4.00;;
19664;SDS011;9980;51.020;7.772;2023-05-20T12:09:09;4.40;;;3.80;;
19664;SDS011;9980;51.020;7.772;2023-05-20T12:11:36;7.63;;;3.90;;
19664;SDS011;9980;51.020;7.772;2023-05-20T12:14:06;5.00;;;4.60;;
19664;SDS011;9980;51.020;7.772;2023-05-20T12:16:34;4.17;;;3.60;;
19664;SDS011;9980;51.020;7.772;2023-05-20T12:19:03;4.60;;;3.70;;
19664;SDS011;9980;51.020;7.772;2023-05-20T12:21:30;4.20;;;3.80;;
19664;SDS011;9980;51.020;7.772;2023-05-20T12:23:58;4.07;;;3.67;;
19664;SDS011;9980;51.020;7.772;2023-05-20T12:26:27;4.23;;;3.60;;
19664;SDS011;9980;51.020;7.772;2023-05-20T12:28:55;4.80;;;3.50;;
19664;SDS011;9980;51.020;7.772;2023-05-20T12:31:22;4.40;;;4.00;;
19664;SDS011;9980;51.020;7.772;2023-05-20T12:33:50;3.97;;;3.67;;
19664;SDS011;9980;51.020;7.772;2023-05-20T12:36:17;4.03;;;3.73;;
19664;SDS011;9980;51.020;7.772;2023-05-20T12:38:44;4.23;;;3.70;;
19664;SDS011;9980;51.020;7.772;2023-05-20T12:41:11;3.60;;;3.30;;
19664;SDS011;9980;51.020;7.772;2023-05-20T12:43:38;4.93;;;3.60;;
19664;SDS011;9980;51.020;7.772;2023-05-20T12:46:06;4.40;;;4.00;;
19664;SDS011;9980;51.020;7.772;2023-05-20T12:48:33;3.93;;;3.67;;
19664;SDS011;9980;51.020;7.772;2023-05-20T12:50:59;4.60;;;3.70;;
19664;SDS011;9980;51.020;7.772;2023-05-20T12:53:27;4.37;;;3.97;;
19664;SDS011;9980;51.020;7.772;2023-05-20T12:55:53;4.67;;;4.07;;
19664;SDS011;9980;51.020;7.772;2023-05-20T12:58:20;5.33;;;3.97;;
19664;SDS011;9980;51.020;7.772;2023-05-20T13:00:47;4.50;;;4.10;;
19664;SDS011;9980;51.020;7.772;2023-05-20T13:03:14;4.93;;;4.43;;
19664;SDS011;9980;51.020;7.772;2023-05-20T13:05:41;5.33;;;4.20;;
19664;SDS011;9980;51.020;7.772;2023-05-20T13:08:08;4.73;;;4.33;;
19664;SDS011;9980;51.020;7.772;2023-05-20T13:10:37;5.50;;;4.10;;
19664;SDS011;9980;51.020;7.772;2023-05-20T13:13:04;5.13;;;4.23;;
19664;SDS011;9980;51.020;7.772;2023-05-20T13:15:31;5.00;;;4.60;;
19664;SDS011;9980;51.020;7.772;2023-05-20T13:17:59;4.43;;;4.03;;
19664;SDS011;9980;51.020;7.772;2023-05-20T13:20:27;4.30;;;3.90;;
19664;SDS011;9980;51.020;7.772;2023-05-20T13:22:55;4.47;;;4.17;;
19664;SDS011;9980;51.020;7.772;2023-05-20T13:25:21;5.90;;;4.20;;
19664;SDS011;9980;51.020;7.772;2023-05-20T13:27:48;4.33;;;4.00;;
19664;SDS011;9980;51.020;7.772;2023-05-20T13:30:16;4.57;;;3.97;;
19664;SDS011;9980;51.020;7.772;2023-05-20T13:32:43;3.93;;;3.63;;
19664;SDS011;9980;51.020;7.772;2023-05-20T13:35:10;5.63;;;4.03;;
19664;SDS011;9980;51.020;7.772;2023-05-20T13:37:38;4.70;;;4.30;;
19664;SDS011;9980;51.020;7.772;2023-05-20T13:40:05;4.63;;;4.17;;
19664;SDS011;9980;51.020;7.772;2023-05-20T13:42:32;5.70;;;4.43;;
19664;SDS011;9980;51.020;7.772;2023-05-20T13:44:59;5.03;;;4.30;;
19664;SDS011;9980;51.020;7.772;2023-05-20T13:47:26;5.53;;;5.03;;
19664;SDS011;9980;51.020;7.772;2023-05-20T13:49:53;5.23;;;4.83;;
19664;SDS011;9980;51.020;7.772;2023-05-20T13:52:20;4.43;;;4.00;;
19664;SDS011;9980;51.020;7.772;2023-05-20T13:54:47;5.80;;;4.47;;
19664;SDS011;9980;51.020;7.772;2023-05-20T13:57:14;4.43;;;4.13;;
19664;SDS011;9980;51.020;7.772;2023-05-20T13:59:41;5.40;;;4.60;;
19664;SDS011;9980;51.020;7.772;2023-05-20T14:02:08;5.30;;;4.90;;
19664;SDS011;9980;51.020;7.772;2023-05-20T14:04:35;6.13;;;5.53;;
19664;SDS011;9980;51.020;7.772;2023-05-20T14:07:05;5.27;;;4.77;;
19664;SDS011;9980;51.020;7.772;2023-05-20T14:09:34;5.43;;;4.93;;
19664;SDS011;9980;51.020;7.772;2023-05-20T14:12:02;5.47;;;4.97;;
19664;SDS011;9980;51.020;7.772;2023-05-20T14:14:30;7.23;;;5.70;;
19664;SDS011;9980;51.020;7.772;2023-05-20T14:16:57;6.97;;;5.20;;
19664;SDS011;9980;51.020;7.772;2023-05-20T14:19:25;8.83;;;5.47;;
19664;SDS011;9980;51.020;7.772;2023-05-20T14:21:52;5.83;;;5.33;;
19664;SDS011;9980;51.020;7.772;2023-05-20T14:24:19;6.80;;;5.10;;
19664;SDS011;9980;51.020;7.772;2023-05-20T14:26:49;5.10;;;4.70;;
19664;SDS011;9980;51.020;7.772;2023-05-20T14:29:16;5.07;;;4.57;;
19664;SDS011;9980;51.020;7.772;2023-05-20T14:31:43;5.60;;;4.57;;
19664;SDS011;9980;51.020;7.772;2023-05-20T14:34:10;6.43;;;4.70;;
19664;SDS011;9980;51.020;7.772;2023-05-20T14:36:37;4.93;;;4.40;;
19664;SDS011;9980;51.020;7.772;2023-05-20T14:39:04;4.93;;;4.50;;
19664;SDS011;9980;51.020;7.772;2023-05-20T14:41:31;5.07;;;4.53;;
19664;SDS011;9980;51.020;7.772;2023-05-20T14:43:58;4.57;;;4.17;;
19664;SDS011;9980;51.020;7.772;2023-05-20T14:46:25;6.10;;;4.83;;
19664;SDS011;9980;51.020;7.772;2023-05-20T14:48:52;5.47;;;4.97;;
19664;SDS011;9980;51.020;7.772;2023-05-20T14:51:19;5.40;;;5.00;;
19664;SDS011;9980;51.020;7.772;2023-05-20T14:53:46;5.33;;;4.83;;
19664;SDS011;9980;51.020;7.772;2023-05-20T14:56:13;5.13;;;4.70;;
19664;SDS011;9980;51.020;7.772;2023-05-20T14:58:40;5.40;;;4.90;;
19664;SDS011;9980;51.020;7.772;2023-05-20T15:01:07;5.50;;;4.33;;
19664;SDS011;9980;51.020;7.772;2023-05-20T15:03:36;4.73;;;4.20;;
19664;SDS011;9980;51.020;7.772;2023-05-20T15:06:04;5.27;;;4.73;;
19664;SDS011;9980;51.020;7.772;2023-05-20T15:08:31;5.10;;;4.60;;
19664;SDS011;9980;51.020;7.772;2023-05-20T15:10:58;5.73;;;5.23;;
19664;SDS011;9980;51.020;7.772;2023-05-20T15:13:25;7.90;;;7.10;;
19664;SDS011;9980;51.020;7.772;2023-05-20T15:15:52;6.30;;;5.70;;
19664;SDS011;9980;51.020;7.772;2023-05-20T15:18:19;6.23;;;5.73;;
19664;SDS011;9980;51.020;7.772;2023-05-20T15:20:46;5.80;;;5.30;;